createdAt,value
2023-01-19T00:01:31.158Z,3.42
2023-01-19T00:04:00.919Z,3.27
2023-01-19T00:06:32.163Z,3.16
2023-01-19T00:09:00.344Z,3.19
2023-01-19T00:11:28.512Z,3.11
2023-01-19T00:13:56.767Z,3.04
2023-01-19T00:16:24.957Z,2.77
2023-01-19T00:18:56.648Z,2.18
2023-01-19T00:21:26.206Z,3.05
2023-01-19T00:23:56.127Z,2.93
2023-01-19T00:26:24.283Z,2.73
2023-01-19T00:28:55.416Z,2.78
2023-01-19T00:31:23.560Z,2.59
2023-01-19T00:33:52.924Z,2.70
2023-01-19T00:36:21.189Z,2.76
2023-01-19T00:38:50.673Z,2.68
2023-01-19T00:41:18.952Z,2.68
2023-01-19T00:43:47.128Z,2.62
2023-01-19T00:46:15.244Z,2.59
2023-01-19T00:48:43.379Z,2.87
2023-01-19T00:51:11.565Z,2.88
2023-01-19T00:53:39.747Z,2.69
2023-01-19T00:56:09.727Z,2.19
2023-01-19T00:58:37.822Z,2.91
2023-01-19T01:01:09.643Z,2.98
2023-01-19T01:03:37.914Z,2.95
2023-01-19T01:06:08.478Z,3.07
2023-01-19T01:08:36.696Z,3.15
2023-01-19T01:11:04.971Z,3.17
2023-01-19T01:13:41.607Z,3.02
2023-01-19T01:16:10.085Z,3.10
2023-01-19T01:18:38.177Z,3.00
2023-01-19T01:21:10.245Z,2.90
2023-01-19T01:23:41.046Z,2.97
2023-01-19T01:26:09.183Z,3.10
2023-01-19T01:28:38.772Z,3.22
2023-01-19T01:31:06.875Z,3.18
2023-01-19T01:33:40.689Z,3.14
2023-01-19T01:36:11.924Z,3.10
2023-01-19T01:38:40.312Z,3.11
2023-01-19T01:41:09.224Z,3.09
2023-01-19T01:43:48.171Z,3.08
2023-01-19T01:46:20.059Z,2.48
2023-01-19T01:48:54.923Z,3.00
2023-01-19T01:51:29.727Z,3.14
2023-01-19T01:54:15.136Z,3.13
2023-01-19T01:56:45.685Z,2.89
2023-01-19T01:59:25.946Z,3.18
2023-01-19T02:02:12.921Z,3.27
2023-01-19T02:04:42.926Z,3.28
2023-01-19T02:07:31.202Z,3.20
2023-01-19T02:10:16.741Z,3.15
2023-01-19T02:13:02.408Z,3.23
2023-01-19T02:15:32.303Z,3.26
2023-01-19T02:18:00.668Z,3.32
2023-01-19T02:20:32.487Z,3.27
2023-01-19T02:23:07.371Z,2.72
2023-01-19T02:25:36.917Z,3.29
2023-01-19T02:28:08.351Z,3.30
2023-01-19T02:30:40.041Z,3.24
2023-01-19T02:33:08.462Z,3.05
2023-01-19T02:35:42.371Z,2.69
2023-01-19T02:38:12.177Z,3.04
2023-01-19T02:40:46.657Z,3.11
2023-01-19T02:43:16.382Z,2.97
2023-01-19T02:45:44.834Z,3.15
2023-01-19T02:48:15.366Z,3.16
2023-01-19T02:50:47.573Z,3.04
2023-01-19T02:53:46.894Z,2.98
2023-01-19T02:56:54.653Z,3.15
2023-01-19T02:59:35.769Z,3.14
2023-01-19T03:02:17.715Z,3.16
2023-01-19T03:05:00.305Z,3.16
2023-01-19T03:07:40.329Z,3.20
2023-01-19T03:10:12.984Z,3.26
2023-01-19T03:12:48.299Z,3.23
2023-01-19T03:15:22.414Z,3.14
2023-01-19T03:17:52.670Z,2.77
2023-01-19T03:20:24.868Z,3.14
2023-01-19T03:23:00.345Z,3.11
2023-01-19T03:25:31.443Z,3.16
2023-01-19T03:28:01.037Z,3.10
2023-01-19T03:30:33.640Z,3.11
2023-01-19T03:33:07.345Z,3.08
2023-01-19T03:35:38.296Z,2.99
2023-01-19T03:38:11.644Z,3.19
2023-01-19T03:40:40.631Z,3.01
2023-01-19T03:43:10.988Z,2.99
2023-01-19T03:45:40.449Z,3.00
2023-01-19T03:48:09.152Z,2.19
2023-01-19T03:50:39.876Z,3.08
2023-01-19T03:53:12.306Z,3.06
2023-01-19T03:55:42.596Z,3.02
2023-01-19T03:58:12.260Z,2.72
2023-01-19T04:00:40.961Z,3.05
2023-01-19T04:03:15.558Z,3.09
2023-01-19T04:05:46.118Z,3.07
2023-01-19T04:08:16.876Z,3.07
2023-01-19T04:10:47.019Z,2.97
2023-01-19T04:13:16.591Z,3.04
2023-01-19T04:15:44.687Z,3.00
2023-01-19T04:18:12.769Z,2.92
2023-01-19T04:20:40.893Z,3.08
2023-01-19T04:23:11.013Z,3.10
2023-01-19T04:25:39.163Z,2.88
2023-01-19T04:28:07.298Z,2.97
2023-01-19T04:30:36.817Z,2.80
2023-01-19T04:33:04.957Z,3.03
2023-01-19T04:35:34.364Z,3.06
2023-01-19T04:38:02.539Z,2.96
2023-01-19T04:40:30.953Z,2.76
2023-01-19T04:42:59.262Z,2.90
2023-01-19T04:45:27.556Z,2.86
2023-01-19T04:47:57.080Z,2.92
2023-01-19T04:50:25.462Z,2.98
2023-01-19T04:52:56.125Z,2.64
2023-01-19T04:55:24.522Z,2.74
2023-01-19T04:57:52.609Z,2.80
2023-01-19T05:00:23.518Z,2.80
2023-01-19T05:02:54.908Z,2.58
2023-01-19T05:05:24.507Z,2.66
2023-01-19T05:07:52.655Z,2.72
2023-01-19T05:10:20.908Z,2.71
2023-01-19T05:12:49.054Z,2.77
2023-01-19T05:15:19.570Z,2.81
2023-01-19T05:17:48.089Z,2.77
2023-01-19T05:20:17.519Z,2.47
2023-01-19T05:22:50.762Z,2.82
2023-01-19T05:25:18.888Z,2.62
2023-01-19T05:27:47.084Z,2.33
2023-01-19T05:30:15.784Z,2.88
2023-01-19T05:32:46.190Z,2.79
2023-01-19T05:35:20.200Z,2.85
2023-01-19T05:37:54.705Z,2.58
2023-01-19T05:40:25.574Z,2.76
2023-01-19T05:42:54.140Z,2.65
2023-01-19T05:45:23.924Z,2.78
2023-01-19T05:47:52.116Z,2.83
2023-01-19T05:50:22.946Z,2.75
2023-01-19T05:52:53.355Z,2.48
2023-01-19T05:55:23.240Z,2.84
2023-01-19T05:57:51.394Z,2.80
2023-01-19T06:00:20.285Z,2.80
2023-01-19T06:02:49.400Z,2.38
2023-01-19T06:05:18.324Z,2.79
2023-01-19T06:07:46.579Z,2.78
2023-01-19T06:10:14.705Z,2.76
2023-01-19T06:12:44.294Z,2.61
2023-01-19T06:15:14.534Z,2.75
2023-01-19T06:17:43.176Z,2.72
2023-01-19T06:20:14.079Z,2.83
2023-01-19T06:22:44.351Z,2.81
2023-01-19T06:25:13.167Z,2.80
2023-01-19T06:27:46.464Z,2.85
2023-01-19T06:30:15.216Z,2.89
2023-01-19T06:32:43.340Z,2.77
2023-01-19T06:35:13.819Z,2.77
2023-01-19T06:37:42.021Z,2.75
2023-01-19T06:40:13.616Z,2.08
2023-01-19T06:42:45.024Z,2.65
2023-01-19T06:45:17.014Z,2.72
2023-01-19T06:47:45.125Z,2.79
2023-01-19T06:50:13.194Z,2.77
2023-01-19T06:52:42.695Z,2.56
2023-01-19T06:55:14.331Z,2.68
2023-01-19T06:57:42.512Z,2.76
2023-01-19T07:00:13.966Z,2.74
2023-01-19T07:02:44.578Z,2.79
2023-01-19T07:05:14.550Z,2.81
2023-01-19T07:07:44.879Z,2.78
2023-01-19T07:10:15.825Z,2.81
2023-01-19T07:12:46.529Z,2.52
2023-01-19T07:15:15.554Z,2.76
2023-01-19T07:17:45.579Z,2.64
2023-01-19T07:20:15.196Z,2.80
2023-01-19T07:22:47.260Z,2.39
2023-01-19T07:25:16.180Z,2.73
2023-01-19T07:27:45.127Z,2.84
2023-01-19T07:30:13.970Z,2.93
2023-01-19T07:32:42.705Z,2.90
2023-01-19T07:35:12.506Z,2.91
2023-01-19T07:37:40.754Z,2.44
2023-01-19T07:40:10.323Z,2.95
2023-01-19T07:42:38.424Z,2.98
2023-01-19T07:45:09.457Z,2.99
2023-01-19T07:47:37.617Z,2.88
2023-01-19T07:50:06.875Z,2.72
2023-01-19T07:52:36.529Z,2.79
2023-01-19T07:55:04.907Z,2.74
2023-01-19T07:57:36.423Z,2.84
2023-01-19T08:00:08.626Z,2.84
2023-01-19T08:02:38.039Z,2.61
2023-01-19T08:05:06.819Z,2.87
2023-01-19T08:07:39.165Z,2.86
2023-01-19T08:10:08.492Z,2.97
2023-01-19T08:12:36.754Z,2.93
2023-01-19T08:15:05.563Z,3.06
2023-01-19T08:17:34.808Z,3.14
2023-01-19T08:20:02.944Z,2.85
2023-01-19T08:22:31.141Z,3.17
2023-01-19T08:25:00.861Z,3.18
2023-01-19T08:27:29.030Z,3.19
2023-01-19T08:29:58.926Z,3.18
2023-01-19T08:32:27.541Z,3.10
2023-01-19T08:34:56.016Z,3.34
2023-01-19T08:37:24.951Z,3.37
2023-01-19T08:39:55.531Z,3.43
2023-01-19T08:42:25.089Z,3.44
2023-01-19T08:44:58.109Z,3.30
2023-01-19T08:47:26.702Z,3.49
2023-01-19T08:50:03.633Z,3.53
2023-01-19T08:52:33.803Z,3.62
2023-01-19T08:55:04.257Z,3.67
2023-01-19T08:57:33.815Z,3.68
2023-01-19T09:00:03.844Z,3.71
2023-01-19T09:02:32.108Z,3.73
2023-01-19T09:05:00.321Z,3.66
2023-01-19T09:07:30.559Z,3.71
2023-01-19T09:10:00.621Z,3.66
2023-01-19T09:12:28.740Z,3.85
2023-01-19T09:14:58.290Z,3.71
2023-01-19T09:17:26.478Z,3.94
2023-01-19T09:22:43.179Z,3.94
2023-01-19T09:25:11.641Z,3.92
2023-01-19T09:27:39.744Z,3.91
2023-01-19T09:30:11.641Z,3.90
2023-01-19T09:32:39.781Z,3.82
2023-01-19T09:35:08.263Z,3.97
2023-01-19T09:37:36.407Z,3.88
2023-01-19T09:40:04.940Z,3.71
2023-01-19T09:42:41.289Z,3.79
2023-01-19T09:45:19.257Z,4.00
2023-01-19T09:47:49.843Z,3.90
2023-01-19T09:50:22.853Z,4.03
2023-01-19T09:53:01.385Z,3.51
2023-01-19T09:55:30.750Z,3.76
2023-01-19T09:57:59.426Z,3.78
2023-01-19T10:00:32.789Z,3.30
2023-01-19T10:03:16.674Z,3.90
2023-01-19T10:05:50.195Z,3.75
2023-01-19T10:08:25.375Z,3.89
2023-01-19T10:10:58.427Z,3.87
2023-01-19T10:13:35.375Z,3.89
2023-01-19T10:16:23.480Z,4.03
2023-01-19T10:18:55.424Z,3.40
2023-01-19T10:21:27.490Z,4.00
2023-01-19T10:23:59.852Z,3.98
2023-01-19T10:26:34.565Z,3.96
2023-01-19T10:29:06.662Z,3.05
2023-01-19T10:31:40.897Z,2.88
2023-01-19T10:34:18.874Z,3.71
2023-01-19T10:36:50.647Z,3.92
2023-01-19T10:39:20.353Z,3.82
2023-01-19T10:41:51.543Z,3.84
2023-01-19T10:44:27.751Z,3.81
2023-01-19T10:47:00.441Z,3.96
2023-01-19T10:49:33.781Z,3.89
2023-01-19T10:52:02.356Z,3.79
2023-01-19T10:54:32.830Z,3.84
2023-01-19T10:57:04.613Z,3.82
2023-01-19T10:59:36.144Z,3.95
2023-01-19T11:02:22.288Z,3.99
2023-01-19T11:04:54.896Z,3.83
2023-01-19T11:07:25.089Z,3.75
2023-01-19T11:10:21.316Z,3.68
2023-01-19T11:13:01.526Z,3.74
2023-01-19T11:15:42.319Z,3.28
2023-01-19T11:18:25.327Z,3.79
2023-01-19T11:20:56.310Z,3.72
2023-01-19T11:23:28.431Z,3.88
2023-01-19T11:26:00.607Z,3.95
2023-01-19T11:28:32.944Z,3.64
2023-01-19T11:31:11.892Z,3.52
2023-01-19T11:33:44.379Z,3.23
2023-01-19T11:36:17.976Z,3.65
2023-01-19T11:38:49.084Z,3.70
2023-01-19T11:41:20.873Z,2.99
2023-01-19T11:43:55.896Z,3.80
2023-01-19T11:46:27.900Z,3.66
2023-01-19T11:49:03.347Z,2.94
2023-01-19T11:51:39.904Z,3.54
2023-01-19T11:54:19.276Z,3.46
2023-01-19T11:56:49.804Z,3.43
2023-01-19T11:59:18.007Z,3.56
2023-01-19T12:01:50.739Z,3.38
2023-01-19T12:04:27.750Z,3.45
2023-01-19T12:07:00.092Z,2.85
2023-01-19T12:09:34.002Z,2.99
2023-01-19T12:12:05.144Z,3.03
2023-01-19T12:14:39.601Z,3.35
2023-01-19T12:17:10.335Z,3.19
2023-01-19T12:19:49.096Z,3.27
2023-01-19T12:22:20.863Z,3.47
2023-01-19T12:24:57.543Z,3.59
2023-01-19T12:27:39.322Z,3.58
2023-01-19T12:30:17.528Z,3.50
2023-01-19T12:32:45.897Z,3.54
2023-01-19T12:35:50.234Z,3.56
2023-01-19T12:38:39.344Z,3.48
2023-01-19T12:41:22.551Z,3.37
2023-01-19T12:44:21.400Z,3.44
2023-01-19T12:46:51.999Z,3.45
2023-01-19T12:49:27.439Z,2.53
2023-01-19T12:52:13.258Z,3.18
2023-01-19T12:54:51.744Z,3.27
2023-01-19T12:57:24.565Z,2.90
2023-01-19T12:59:59.885Z,2.75
2023-01-19T13:02:53.517Z,2.90
2023-01-19T13:05:47.631Z,2.92
2023-01-19T13:08:25.668Z,2.96
2023-01-19T13:11:23.783Z,3.00
2023-01-19T13:14:35.995Z,2.89
2023-01-19T13:17:20.653Z,3.10
2023-01-19T13:19:55.183Z,3.10
2023-01-19T13:23:01.935Z,3.02
2023-01-19T13:25:35.621Z,3.08
2023-01-19T13:28:10.390Z,2.78
2023-01-19T13:30:48.251Z,2.70
2023-01-19T13:33:21.382Z,2.65
2023-01-19T13:35:55.855Z,2.51
2023-01-19T13:38:25.255Z,2.46
2023-01-19T13:40:59.094Z,2.56
2023-01-19T13:43:31.666Z,1.74
2023-01-19T13:46:01.405Z,2.44
2023-01-19T13:48:29.920Z,2.25
2023-01-19T13:51:04.292Z,2.44
2023-01-19T13:53:32.612Z,2.45
2023-01-19T13:56:20.787Z,2.41
2023-01-19T13:59:13.045Z,2.51
2023-01-19T14:01:47.048Z,2.41
2023-01-19T14:04:36.180Z,2.51
2023-01-19T14:07:13.273Z,2.40
2023-01-19T14:09:49.123Z,2.39
2023-01-19T14:12:18.972Z,2.25
2023-01-19T14:14:49.495Z,2.56
2023-01-19T14:17:26.659Z,2.29
2023-01-19T14:19:56.583Z,2.49
2023-01-19T14:22:39.429Z,2.73
2023-01-19T14:25:30.619Z,1.82
2023-01-19T14:28:29.088Z,2.64
2023-01-19T14:30:59.316Z,2.42
2023-01-19T14:33:38.111Z,2.58
2023-01-19T14:36:26.346Z,2.45
2023-01-19T14:38:56.893Z,2.59
2023-01-19T14:41:28.333Z,2.62
2023-01-19T14:43:58.933Z,2.59
2023-01-19T14:46:28.262Z,2.10
2023-01-19T14:49:05.620Z,2.58
2023-01-19T14:51:44.593Z,2.27
2023-01-19T14:54:21.870Z,2.63
2023-01-19T14:56:50.411Z,2.62
2023-01-19T14:59:24.991Z,2.63
2023-01-19T15:01:53.572Z,2.62
2023-01-19T15:04:22.123Z,2.68
2023-01-19T15:06:50.659Z,2.51
2023-01-19T15:09:20.991Z,2.38
2023-01-19T15:11:51.579Z,2.31
2023-01-19T15:14:22.409Z,2.55
2023-01-19T15:16:51.631Z,2.64
2023-01-19T15:19:22.207Z,2.37
2023-01-19T15:21:50.451Z,2.59
2023-01-19T15:24:18.738Z,2.00
2023-01-19T15:26:47.073Z,2.57
2023-01-19T15:29:28.951Z,2.46
2023-01-19T15:31:57.720Z,2.47
2023-01-19T15:34:25.931Z,2.51
2023-01-19T15:36:54.084Z,2.52
2023-01-19T15:39:23.369Z,2.26
2023-01-19T15:41:53.879Z,2.41
2023-01-19T15:44:23.524Z,2.33
2023-01-19T15:46:53.855Z,2.57
2023-01-19T15:49:25.139Z,2.66
2023-01-19T15:51:53.554Z,2.60
2023-01-19T15:54:21.814Z,2.57
2023-01-19T15:56:50.975Z,2.52
2023-01-19T15:59:19.180Z,2.39
2023-01-19T16:01:50.966Z,2.16
2023-01-19T16:07:08.617Z,2.55
2023-01-19T16:09:36.932Z,2.03
2023-01-19T16:12:07.936Z,2.23
2023-01-19T16:14:40.318Z,2.29
2023-01-19T16:17:10.007Z,2.28
2023-01-19T16:19:38.248Z,2.31
2023-01-19T16:22:06.875Z,2.34
2023-01-19T16:24:35.168Z,2.36
2023-01-19T16:27:04.112Z,2.24
2023-01-19T16:29:32.542Z,2.03
2023-01-19T16:32:00.751Z,2.12
2023-01-19T16:34:30.402Z,2.09
2023-01-19T16:36:58.570Z,2.13
2023-01-19T16:39:26.809Z,2.17
2023-01-19T16:41:55.093Z,1.91
2023-01-19T16:44:26.186Z,1.82
2023-01-19T16:46:54.567Z,1.79
2023-01-19T16:49:24.890Z,1.59
2023-01-19T16:51:55.715Z,1.68
2023-01-19T16:54:26.857Z,1.81
2023-01-19T16:56:56.622Z,1.88
2023-01-19T16:59:27.103Z,1.73
2023-01-19T17:01:56.102Z,1.61
2023-01-19T17:04:25.217Z,1.54
2023-01-19T17:06:55.179Z,1.24
2023-01-19T17:09:23.477Z,1.66
2023-01-19T17:11:51.622Z,1.74
2023-01-19T17:14:21.570Z,1.77
2023-01-19T17:16:50.576Z,1.67
2023-01-19T17:19:22.268Z,1.82
2023-01-19T17:21:51.326Z,1.70
2023-01-19T17:24:20.950Z,1.24
2023-01-19T17:26:49.741Z,1.40
2023-01-19T17:29:18.930Z,1.48
2023-01-19T17:31:47.409Z,1.37
2023-01-19T17:34:15.665Z,1.49
2023-01-19T17:36:43.950Z,1.27
2023-01-19T17:39:15.075Z,1.52
2023-01-19T17:41:44.875Z,1.26
2023-01-19T17:44:13.017Z,1.46
2023-01-19T17:46:41.192Z,1.50
2023-01-19T17:49:09.650Z,1.50
2023-01-19T17:51:38.302Z,1.33
2023-01-19T17:54:06.671Z,1.22
2023-01-19T17:56:37.634Z,1.22
2023-01-19T17:59:08.349Z,1.39
2023-01-19T18:01:39.954Z,1.29
2023-01-19T18:04:09.612Z,1.20
2023-01-19T18:06:38.226Z,0.77
2023-01-19T18:09:07.617Z,1.15
2023-01-19T18:11:36.169Z,1.05
2023-01-19T18:14:06.141Z,1.04
2023-01-19T18:16:36.494Z,0.87
2023-01-19T18:19:05.011Z,1.01
2023-01-19T18:21:33.249Z,0.69
2023-01-19T18:24:03.383Z,1.16
2023-01-19T18:26:33.057Z,1.12
2023-01-19T18:29:01.420Z,1.03
2023-01-19T18:31:30.374Z,0.74
2023-01-19T18:34:01.198Z,0.72
2023-01-19T18:36:32.075Z,0.89
2023-01-19T18:39:00.321Z,0.86
2023-01-19T18:41:29.899Z,0.59
2023-01-19T18:43:59.881Z,1.04
2023-01-19T18:46:28.595Z,0.65
2023-01-19T18:48:57.034Z,1.03
2023-01-19T18:51:26.814Z,1.07
2023-01-19T18:53:55.145Z,0.46
2023-01-19T18:56:23.522Z,1.03
2023-01-19T18:58:52.435Z,0.31
2023-01-19T19:01:23.945Z,1.18
2023-01-19T19:03:53.037Z,1.18
2023-01-19T19:06:22.103Z,1.21
2023-01-19T19:08:53.225Z,1.33
2023-01-19T19:11:22.986Z,1.33
2023-01-19T19:13:54.167Z,1.31
2023-01-19T19:16:22.679Z,1.21
2023-01-19T19:18:51.152Z,1.18
2023-01-19T19:21:21.273Z,1.22
2023-01-19T19:23:53.851Z,1.25
2023-01-19T19:26:22.373Z,0.78
2023-01-19T19:28:50.576Z,1.18
2023-01-19T19:31:21.141Z,1.17
2023-01-19T19:33:51.198Z,1.24
2023-01-19T19:36:20.292Z,1.30
2023-01-19T19:38:48.580Z,0.88
2023-01-19T19:41:20.339Z,1.12
2023-01-19T19:43:48.653Z,1.37
2023-01-19T19:46:20.162Z,1.21
2023-01-19T19:48:48.864Z,1.42
2023-01-19T19:51:19.719Z,1.43
2023-01-19T19:53:51.238Z,1.51
2023-01-19T19:56:22.985Z,1.46
2023-01-19T19:58:52.578Z,0.96
2023-01-19T20:01:24.153Z,1.03
2023-01-19T20:03:54.289Z,1.41
2023-01-19T20:06:24.705Z,1.43
2023-01-19T20:08:54.702Z,1.37
2023-01-19T20:11:27.699Z,1.11
2023-01-19T20:13:56.004Z,1.33
2023-01-19T20:16:25.031Z,1.35
2023-01-19T20:18:55.282Z,1.11
2023-01-19T20:21:25.815Z,1.16
2023-01-19T20:23:55.139Z,1.45
2023-01-19T20:26:27.944Z,1.44
2023-01-19T20:28:59.716Z,1.35
2023-01-19T20:31:30.197Z,1.40
2023-01-19T20:34:01.039Z,1.29
2023-01-19T20:36:29.484Z,1.30
2023-01-19T20:38:58.648Z,1.34
2023-01-19T20:41:28.341Z,1.38
2023-01-19T20:43:56.624Z,1.35
2023-01-19T20:46:24.798Z,1.40
2023-01-19T20:48:54.793Z,1.06
2023-01-19T20:51:23.230Z,1.18
2023-01-19T20:53:51.511Z,1.30
2023-01-19T20:56:19.799Z,1.34
2023-01-19T20:58:49.353Z,1.33
2023-01-19T21:01:19.885Z,1.22
2023-01-19T21:03:48.473Z,1.32
2023-01-19T21:06:17.495Z,1.26
2023-01-19T21:08:45.711Z,1.42
2023-01-19T21:11:14.407Z,1.43
2023-01-19T21:13:42.567Z,1.29
2023-01-19T21:16:12.385Z,1.43
2023-01-19T21:18:40.634Z,1.49
2023-01-19T21:21:14.920Z,0.75
2023-01-19T21:23:50.083Z,1.39
2023-01-19T21:26:18.472Z,1.41
2023-01-19T21:28:46.605Z,1.42
2023-01-19T21:31:16.202Z,1.40
2023-01-19T21:33:44.762Z,1.27
2023-01-19T21:36:12.908Z,1.44
2023-01-19T21:38:41.058Z,1.42
2023-01-19T21:41:12.738Z,1.12
2023-01-19T21:43:43.189Z,1.52
2023-01-19T21:46:13.780Z,1.43
2023-01-19T21:48:43.548Z,1.32
2023-01-19T21:51:11.710Z,1.11
2023-01-19T21:53:40.230Z,1.20
2023-01-19T21:56:09.474Z,1.24
2023-01-19T21:58:37.798Z,1.28
2023-01-19T22:01:09.820Z,1.24
2023-01-19T22:03:38.387Z,1.19
2023-01-19T22:06:10.788Z,1.07
2023-01-19T22:08:39.452Z,1.24
2023-01-19T22:11:08.954Z,0.91
2023-01-19T22:13:38.702Z,0.22
2023-01-19T22:16:10.523Z,0.76
2023-01-19T22:18:39.910Z,1.06
2023-01-19T22:21:14.150Z,1.09
2023-01-19T22:23:43.250Z,1.12
2023-01-19T22:26:12.934Z,1.08
2023-01-19T22:28:41.255Z,1.24
2023-01-19T22:31:11.217Z,0.92
2023-01-19T22:33:40.170Z,0.73
2023-01-19T22:36:15.632Z,0.68
2023-01-19T22:38:44.784Z,1.03
2023-01-19T22:41:15.207Z,0.59
2023-01-19T22:43:43.931Z,1.04
2023-01-19T22:46:12.321Z,1.12
2023-01-19T22:48:41.397Z,0.94
2023-01-19T22:51:09.909Z,1.06
2023-01-19T22:53:39.576Z,1.02
2023-01-19T22:56:12.435Z,1.05
2023-01-19T22:58:41.579Z,1.03
2023-01-19T23:01:10.505Z,0.89
2023-01-19T23:03:39.589Z,1.02
2023-01-19T23:06:09.335Z,1.02
2023-01-19T23:08:39.646Z,1.00
2023-01-19T23:11:08.582Z,1.02
2023-01-19T23:13:37.271Z,0.79
2023-01-19T23:16:06.084Z,0.90
2023-01-19T23:18:34.637Z,0.88
2023-01-19T23:21:06.939Z,0.85
2023-01-19T23:23:36.187Z,0.83
2023-01-19T23:26:08.484Z,0.83
2023-01-19T23:28:37.670Z,0.11
2023-01-19T23:31:15.392Z,0.81
2023-01-19T23:33:44.395Z,0.52
2023-01-19T23:36:13.002Z,0.77
2023-01-19T23:38:41.150Z,0.70
2023-01-19T23:41:10.704Z,-0.05
2023-01-19T23:43:38.885Z,0.62
2023-01-19T23:46:08.623Z,0.61
2023-01-19T23:48:37.375Z,-0.44
2023-01-19T23:51:07.902Z,0.36
2023-01-19T23:53:36.495Z,0.57
2023-01-19T23:56:14.705Z,0.48
2023-01-19T23:58:42.989Z,0.47
